sensor_id;sensor_type;location;lat;lon;timestamp;P1;durP1;ratioP1;P2;durP2;ratioP2
6043;SDS011;3050;42.660;23.276;2023-06-01T07:50:32;5.00;;;4.68;;
6043;SDS011;3050;42.660;23.276;2023-06-01T07:53:50;6.13;;;5.53;;
6043;SDS011;3050;42.660;23.276;2023-06-01T07:57:52;5.60;;;4.60;;
6043;SDS011;3050;42.660;23.276;2023-06-01T08:00:12;5.60;;;5.10;;
6043;SDS011;3050;42.660;23.276;2023-06-01T08:02:46;4.97;;;4.43;;
6043;SDS011;3050;42.660;23.276;2023-06-01T08:05:50;6.53;;;4.97;;
6043;SDS011;3050;42.660;23.276;2023-06-01T08:08:40;4.80;;;4.50;;
6043;SDS011;3050;42.660;23.276;2023-06-01T08:14:32;5.32;;;4.93;;
6043;SDS011;3050;42.660;23.276;2023-06-01T08:17:38;6.47;;;5.50;;
6043;SDS011;3050;42.660;23.276;2023-06-01T08:20:25;6.43;;;5.82;;
6043;SDS011;3050;42.660;23.276;2023-06-01T08:29:29;5.88;;;5.30;;
6043;SDS011;3050;42.660;23.276;2023-06-01T08:32:25;6.53;;;5.53;;
6043;SDS011;3050;42.660;23.276;2023-06-01T08:35:21;5.85;;;5.10;;
6043;SDS011;3050;42.660;23.276;2023-06-01T08:38:11;5.82;;;5.20;;
6043;SDS011;3050;42.660;23.276;2023-06-01T08:44:11;6.07;;;5.55;;
6043;SDS011;3050;42.660;23.276;2023-06-01T08:46:58;5.43;;;5.03;;
6043;SDS011;3050;42.660;23.276;2023-06-01T08:49:33;11.13;;;6.43;;
6043;SDS011;3050;42.660;23.276;2023-06-01T08:52:18;5.95;;;5.53;;
6043;SDS011;3050;42.660;23.276;2023-06-01T08:55:05;6.50;;;5.20;;
6043;SDS011;3050;42.660;23.276;2023-06-01T08:57:54;5.35;;;4.85;;
6043;SDS011;3050;42.660;23.276;2023-06-01T09:00:30;5.22;;;4.80;;
6043;SDS011;3050;42.660;23.276;2023-06-01T09:34:17;5.20;;;4.15;;
6043;SDS011;3050;42.660;23.276;2023-06-01T09:47:04;5.60;;;3.78;;
6043;SDS011;3050;42.660;23.276;2023-06-01T09:49:46;3.92;;;3.35;;
6043;SDS011;3050;42.660;23.276;2023-06-01T09:52:38;3.33;;;2.40;;
6043;SDS011;3050;42.660;23.276;2023-06-01T09:55:24;3.42;;;3.15;;
6043;SDS011;3050;42.660;23.276;2023-06-01T10:00:46;2.53;;;2.38;;
6043;SDS011;3050;42.660;23.276;2023-06-01T10:04:07;3.95;;;2.40;;
6043;SDS011;3050;42.660;23.276;2023-06-01T11:17:37;2.20;;;2.10;;
6043;SDS011;3050;42.660;23.276;2023-06-01T11:23:37;4.25;;;2.22;;
6043;SDS011;3050;42.660;23.276;2023-06-01T11:26:29;2.08;;;1.88;;
6043;SDS011;3050;42.660;23.276;2023-06-01T12:05:58;1.42;;;1.23;;
6043;SDS011;3050;42.660;23.276;2023-06-01T12:08:25;1.70;;;1.60;;
6043;SDS011;3050;42.660;23.276;2023-06-01T12:10:54;1.80;;;1.70;;
6043;SDS011;3050;42.660;23.276;2023-06-01T12:13:21;1.40;;;1.33;;
6043;SDS011;3050;42.660;23.276;2023-06-01T12:15:50;2.80;;;1.98;;
6043;SDS011;3050;42.660;23.276;2023-06-01T12:18:27;1.33;;;1.23;;
6043;SDS011;3050;42.660;23.276;2023-06-01T12:20:57;1.33;;;1.33;;
6043;SDS011;3050;42.660;23.276;2023-06-01T12:23:24;1.23;;;1.08;;
6043;SDS011;3050;42.660;23.276;2023-06-01T12:25:53;1.20;;;1.20;;
6043;SDS011;3050;42.660;23.276;2023-06-01T12:28:23;2.15;;;1.95;;
6043;SDS011;3050;42.660;23.276;2023-06-01T12:33:32;1.33;;;1.23;;
6043;SDS011;3050;42.660;23.276;2023-06-01T12:36:02;2.28;;;2.15;;
6043;SDS011;3050;42.660;23.276;2023-06-01T12:38:34;1.30;;;1.30;;
6043;SDS011;3050;42.660;23.276;2023-06-01T12:41:07;2.55;;;1.40;;
6043;SDS011;3050;42.660;23.276;2023-06-01T12:43:35;0.95;;;0.95;;
6043;SDS011;3050;42.660;23.276;2023-06-01T12:46:04;1.45;;;1.33;;
6043;SDS011;3050;42.660;23.276;2023-06-01T12:48:32;1.75;;;1.65;;
6043;SDS011;3050;42.660;23.276;2023-06-01T12:50:59;2.13;;;1.58;;
6043;SDS011;3050;42.660;23.276;2023-06-01T12:53:28;1.15;;;1.05;;
6043;SDS011;3050;42.660;23.276;2023-06-01T12:55:54;1.73;;;1.63;;
6043;SDS011;3050;42.660;23.276;2023-06-01T12:58:21;1.65;;;1.33;;
6043;SDS011;3050;42.660;23.276;2023-06-01T13:00:48;1.90;;;1.65;;
6043;SDS011;3050;42.660;23.276;2023-06-01T13:03:17;3.35;;;1.80;;
6043;SDS011;3050;42.660;23.276;2023-06-01T13:05:45;5.22;;;1.60;;
6043;SDS011;3050;42.660;23.276;2023-06-01T13:08:26;1.65;;;1.55;;
6043;SDS011;3050;42.660;23.276;2023-06-01T13:10:55;2.00;;;1.90;;
6043;SDS011;3050;42.660;23.276;2023-06-01T13:13:22;2.50;;;1.27;;
6043;SDS011;3050;42.660;23.276;2023-06-01T13:15:49;1.13;;;0.90;;
6043;SDS011;3050;42.660;23.276;2023-06-01T13:18:16;1.25;;;1.25;;
6043;SDS011;3050;42.660;23.276;2023-06-01T13:20:43;0.85;;;0.85;;
6043;SDS011;3050;42.660;23.276;2023-06-01T13:23:10;0.80;;;0.80;;
6043;SDS011;3050;42.660;23.276;2023-06-01T13:25:37;0.50;;;0.50;;
6043;SDS011;3050;42.660;23.276;2023-06-01T13:28:06;0.63;;;0.63;;
6043;SDS011;3050;42.660;23.276;2023-06-01T13:30:33;0.68;;;0.63;;
6043;SDS011;3050;42.660;23.276;2023-06-01T13:33:00;0.40;;;0.40;;
6043;SDS011;3050;42.660;23.276;2023-06-01T13:35:27;0.60;;;0.60;;
6043;SDS011;3050;42.660;23.276;2023-06-01T13:37:54;0.50;;;0.50;;
6043;SDS011;3050;42.660;23.276;2023-06-01T13:40:22;3.25;;;0.40;;
6043;SDS011;3050;42.660;23.276;2023-06-01T13:42:50;0.55;;;0.55;;
6043;SDS011;3050;42.660;23.276;2023-06-01T13:45:19;0.40;;;0.40;;
6043;SDS011;3050;42.660;23.276;2023-06-01T13:47:47;0.65;;;0.65;;
6043;SDS011;3050;42.660;23.276;2023-06-01T13:50:15;0.60;;;0.60;;
6043;SDS011;3050;42.660;23.276;2023-06-01T13:52:42;0.70;;;0.70;;
6043;SDS011;3050;42.660;23.276;2023-06-01T13:55:10;0.50;;;0.50;;
6043;SDS011;3050;42.660;23.276;2023-06-01T13:57:37;0.60;;;0.60;;
6043;SDS011;3050;42.660;23.276;2023-06-01T14:00:05;0.50;;;0.50;;
6043;SDS011;3050;42.660;23.276;2023-06-01T14:02:35;0.50;;;0.50;;
6043;SDS011;3050;42.660;23.276;2023-06-01T14:05:02;0.68;;;0.68;;
6043;SDS011;3050;42.660;23.276;2023-06-01T14:07:29;1.02;;;0.93;;
6043;SDS011;3050;42.660;23.276;2023-06-01T14:09:56;1.00;;;1.00;;
6043;SDS011;3050;42.660;23.276;2023-06-01T14:12:23;1.02;;;1.02;;
6043;SDS011;3050;42.660;23.276;2023-06-01T14:14:50;1.02;;;1.02;;
6043;SDS011;3050;42.660;23.276;2023-06-01T14:17:17;2.97;;;1.35;;
6043;SDS011;3050;42.660;23.276;2023-06-01T14:19:45;1.27;;;1.27;;
6043;SDS011;3050;42.660;23.276;2023-06-01T14:22:11;4.72;;;1.50;;
6043;SDS011;3050;42.660;23.276;2023-06-01T14:24:38;1.55;;;1.08;;
6043;SDS011;3050;42.660;23.276;2023-06-01T14:27:07;1.25;;;1.17;;
6043;SDS011;3050;42.660;23.276;2023-06-01T14:29:35;2.90;;;1.30;;
6043;SDS011;3050;42.660;23.276;2023-06-01T14:32:01;1.20;;;1.20;;
6043;SDS011;3050;42.660;23.276;2023-06-01T14:34:28;1.40;;;1.30;;
6043;SDS011;3050;42.660;23.276;2023-06-01T14:36:57;1.08;;;1.08;;
6043;SDS011;3050;42.660;23.276;2023-06-01T14:39:25;1.52;;;1.42;;
6043;SDS011;3050;42.660;23.276;2023-06-01T14:41:53;1.77;;;1.10;;
6043;SDS011;3050;42.660;23.276;2023-06-01T14:44:20;1.50;;;1.40;;
6043;SDS011;3050;42.660;23.276;2023-06-01T14:46:48;1.75;;;1.58;;
6043;SDS011;3050;42.660;23.276;2023-06-01T14:49:14;2.63;;;1.70;;
6043;SDS011;3050;42.660;23.276;2023-06-01T14:51:41;1.67;;;1.63;;
6043;SDS011;3050;42.660;23.276;2023-06-01T14:54:10;3.25;;;1.88;;
6043;SDS011;3050;42.660;23.276;2023-06-01T14:56:37;1.90;;;1.80;;
6043;SDS011;3050;42.660;23.276;2023-06-01T14:59:05;1.60;;;1.60;;
6043;SDS011;3050;42.660;23.276;2023-06-01T15:01:33;2.92;;;1.90;;
6043;SDS011;3050;42.660;23.276;2023-06-01T15:04:00;1.67;;;1.58;;
6043;SDS011;3050;42.660;23.276;2023-06-01T15:06:28;2.65;;;2.15;;
6043;SDS011;3050;42.660;23.276;2023-06-01T15:08:55;1.52;;;1.48;;
6043;SDS011;3050;42.660;23.276;2023-06-01T15:11:23;2.15;;;2.05;;
6043;SDS011;3050;42.660;23.276;2023-06-01T15:13:51;2.00;;;1.90;;
6043;SDS011;3050;42.660;23.276;2023-06-01T15:16:18;2.45;;;2.35;;
6043;SDS011;3050;42.660;23.276;2023-06-01T15:18:45;1.80;;;1.70;;
6043;SDS011;3050;42.660;23.276;2023-06-01T15:21:12;2.28;;;2.17;;
6043;SDS011;3050;42.660;23.276;2023-06-01T15:23:40;2.15;;;2.05;;
6043;SDS011;3050;42.660;23.276;2023-06-01T15:26:09;2.00;;;1.60;;
6043;SDS011;3050;42.660;23.276;2023-06-01T15:28:37;2.00;;;1.90;;
6043;SDS011;3050;42.660;23.276;2023-06-01T15:31:07;2.25;;;2.15;;
6043;SDS011;3050;42.660;23.276;2023-06-01T15:33:34;2.10;;;2.00;;
6043;SDS011;3050;42.660;23.276;2023-06-01T15:36:01;1.45;;;1.35;;
6043;SDS011;3050;42.660;23.276;2023-06-01T15:38:37;2.15;;;2.05;;
6043;SDS011;3050;42.660;23.276;2023-06-01T15:41:07;2.10;;;1.90;;
6043;SDS011;3050;42.660;23.276;2023-06-01T15:43:35;2.75;;;2.55;;
6043;SDS011;3050;42.660;23.276;2023-06-01T15:46:05;2.10;;;1.95;;
6043;SDS011;3050;42.660;23.276;2023-06-01T15:48:34;2.75;;;2.00;;
6043;SDS011;3050;42.660;23.276;2023-06-01T15:51:04;2.58;;;2.38;;
6043;SDS011;3050;42.660;23.276;2023-06-01T15:53:31;2.70;;;2.30;;
6043;SDS011;3050;42.660;23.276;2023-06-01T15:56:04;2.50;;;2.30;;
6043;SDS011;3050;42.660;23.276;2023-06-01T15:58:34;2.15;;;2.05;;
6043;SDS011;3050;42.660;23.276;2023-06-01T16:01:02;3.15;;;2.45;;
6043;SDS011;3050;42.660;23.276;2023-06-01T16:06:32;3.08;;;2.78;;
6043;SDS011;3050;42.660;23.276;2023-06-01T16:09:02;3.20;;;3.00;;
6043;SDS011;3050;42.660;23.276;2023-06-01T16:11:28;2.25;;;2.15;;
6043;SDS011;3050;42.660;23.276;2023-06-01T16:13:57;3.53;;;2.03;;
6043;SDS011;3050;42.660;23.276;2023-06-01T16:16:27;4.97;;;3.00;;
6043;SDS011;3050;42.660;23.276;2023-06-01T16:18:55;3.20;;;3.00;;
6043;SDS011;3050;42.660;23.276;2023-06-01T16:21:23;2.85;;;2.65;;
6043;SDS011;3050;42.660;23.276;2023-06-01T16:23:54;2.55;;;2.35;;
6043;SDS011;3050;42.660;23.276;2023-06-01T16:26:24;3.10;;;2.47;;
6043;SDS011;3050;42.660;23.276;2023-06-01T16:28:52;3.85;;;2.42;;
6043;SDS011;3050;42.660;23.276;2023-06-01T16:31:20;2.78;;;2.45;;
6043;SDS011;3050;42.660;23.276;2023-06-01T16:33:48;2.22;;;2.10;;
6043;SDS011;3050;42.660;23.276;2023-06-01T16:36:15;2.50;;;2.30;;
6043;SDS011;3050;42.660;23.276;2023-06-01T16:38:42;2.90;;;2.70;;
6043;SDS011;3050;42.660;23.276;2023-06-01T16:41:11;2.08;;;1.98;;
6043;SDS011;3050;42.660;23.276;2023-06-01T16:43:38;2.58;;;2.47;;
6043;SDS011;3050;42.660;23.276;2023-06-01T16:46:05;2.50;;;2.33;;
6043;SDS011;3050;42.660;23.276;2023-06-01T16:48:33;2.80;;;2.70;;
6043;SDS011;3050;42.660;23.276;2023-06-01T16:51:00;2.60;;;2.50;;
6043;SDS011;3050;42.660;23.276;2023-06-01T16:53:27;3.50;;;2.70;;
6043;SDS011;3050;42.660;23.276;2023-06-01T16:55:54;2.97;;;2.78;;
6043;SDS011;3050;42.660;23.276;2023-06-01T16:58:22;2.40;;;2.30;;
6043;SDS011;3050;42.660;23.276;2023-06-01T17:00:49;3.20;;;2.80;;
6043;SDS011;3050;42.660;23.276;2023-06-01T17:03:17;2.45;;;2.25;;
6043;SDS011;3050;42.660;23.276;2023-06-01T17:05:56;3.17;;;2.97;;
6043;SDS011;3050;42.660;23.276;2023-06-01T17:08:24;2.38;;;2.28;;
6043;SDS011;3050;42.660;23.276;2023-06-01T17:10:51;2.92;;;2.72;;
6043;SDS011;3050;42.660;23.276;2023-06-01T17:13:21;5.95;;;2.85;;
6043;SDS011;3050;42.660;23.276;2023-06-01T17:15:50;2.72;;;2.53;;
6043;SDS011;3050;42.660;23.276;2023-06-01T17:18:17;3.45;;;3.22;;
6043;SDS011;3050;42.660;23.276;2023-06-01T17:20:44;4.22;;;3.15;;
6043;SDS011;3050;42.660;23.276;2023-06-01T17:23:11;4.20;;;2.88;;
6043;SDS011;3050;42.660;23.276;2023-06-01T17:28:27;3.50;;;3.25;;
6043;SDS011;3050;42.660;23.276;2023-06-01T17:31:00;3.28;;;2.75;;
6043;SDS011;3050;42.660;23.276;2023-06-01T17:33:28;2.75;;;2.50;;
6043;SDS011;3050;42.660;23.276;2023-06-01T17:35:55;5.35;;;3.30;;
6043;SDS011;3050;42.660;23.276;2023-06-01T17:38:23;4.65;;;3.25;;
6043;SDS011;3050;42.660;23.276;2023-06-01T17:40:53;3.83;;;3.42;;
6043;SDS011;3050;42.660;23.276;2023-06-01T17:43:21;5.03;;;2.80;;
6043;SDS011;3050;42.660;23.276;2023-06-01T17:45:49;5.47;;;3.15;;
6043;SDS011;3050;42.660;23.276;2023-06-01T17:48:19;3.38;;;3.17;;
6043;SDS011;3050;42.660;23.276;2023-06-01T17:50:48;2.67;;;2.55;;
6043;SDS011;3050;42.660;23.276;2023-06-01T17:53:15;2.83;;;2.58;;
6043;SDS011;3050;42.660;23.276;2023-06-01T17:55:43;6.03;;;3.33;;
6043;SDS011;3050;42.660;23.276;2023-06-01T17:58:15;8.43;;;4.78;;
6043;SDS011;3050;42.660;23.276;2023-06-01T18:00:43;4.82;;;3.40;;
6043;SDS011;3050;42.660;23.276;2023-06-01T18:03:10;4.32;;;3.35;;
6043;SDS011;3050;42.660;23.276;2023-06-01T18:05:39;4.95;;;3.15;;
6043;SDS011;3050;42.660;23.276;2023-06-01T18:08:06;4.72;;;2.55;;
6043;SDS011;3050;42.660;23.276;2023-06-01T18:10:33;4.25;;;2.50;;
6043;SDS011;3050;42.660;23.276;2023-06-01T18:13:01;3.13;;;2.83;;
6043;SDS011;3050;42.660;23.276;2023-06-01T18:15:28;3.75;;;3.40;;
6043;SDS011;3050;42.660;23.276;2023-06-01T18:17:55;3.65;;;3.30;;
6043;SDS011;3050;42.660;23.276;2023-06-01T18:20:23;9.50;;;4.90;;
6043;SDS011;3050;42.660;23.276;2023-06-01T18:22:51;7.68;;;5.40;;
6043;SDS011;3050;42.660;23.276;2023-06-01T18:25:18;7.22;;;5.20;;
6043;SDS011;3050;42.660;23.276;2023-06-01T18:27:45;6.43;;;5.40;;
6043;SDS011;3050;42.660;23.276;2023-06-01T18:30:12;2.53;;;2.40;;
6043;SDS011;3050;42.660;23.276;2023-06-01T18:32:38;2.97;;;2.78;;
6043;SDS011;3050;42.660;23.276;2023-06-01T18:35:05;7.43;;;3.95;;
6043;SDS011;3050;42.660;23.276;2023-06-01T18:37:33;2.75;;;2.58;;
6043;SDS011;3050;42.660;23.276;2023-06-01T18:40:02;4.85;;;3.55;;
6043;SDS011;3050;42.660;23.276;2023-06-01T18:42:29;5.20;;;3.88;;
6043;SDS011;3050;42.660;23.276;2023-06-01T18:44:57;3.28;;;2.72;;
6043;SDS011;3050;42.660;23.276;2023-06-01T18:47:25;2.65;;;2.45;;
6043;SDS011;3050;42.660;23.276;2023-06-01T18:49:51;3.03;;;2.80;;
6043;SDS011;3050;42.660;23.276;2023-06-01T18:52:19;4.47;;;3.47;;
6043;SDS011;3050;42.660;23.276;2023-06-01T18:54:47;4.60;;;4.05;;
6043;SDS011;3050;42.660;23.276;2023-06-01T18:57:18;3.17;;;2.97;;
6043;SDS011;3050;42.660;23.276;2023-06-01T18:59:45;5.93;;;3.70;;
6043;SDS011;3050;42.660;23.276;2023-06-01T19:02:13;3.58;;;2.58;;
6043;SDS011;3050;42.660;23.276;2023-06-01T19:04:40;3.20;;;2.90;;
6043;SDS011;3050;42.660;23.276;2023-06-01T19:07:11;2.47;;;2.33;;
6043;SDS011;3050;42.660;23.276;2023-06-01T19:09:47;2.97;;;2.78;;
6043;SDS011;3050;42.660;23.276;2023-06-01T19:12:25;5.43;;;3.13;;
6043;SDS011;3050;42.660;23.276;2023-06-01T19:14:54;4.18;;;2.80;;
6043;SDS011;3050;42.660;23.276;2023-06-01T19:17:22;3.78;;;2.60;;
6043;SDS011;3050;42.660;23.276;2023-06-01T19:19:49;2.95;;;2.63;;
6043;SDS011;3050;42.660;23.276;2023-06-01T19:22:18;2.20;;;2.10;;
6043;SDS011;3050;42.660;23.276;2023-06-01T19:24:47;5.53;;;2.83;;
6043;SDS011;3050;42.660;23.276;2023-06-01T19:27:14;4.95;;;3.20;;
6043;SDS011;3050;42.660;23.276;2023-06-01T19:29:43;3.42;;;3.13;;
6043;SDS011;3050;42.660;23.276;2023-06-01T19:32:11;3.53;;;2.70;;
6043;SDS011;3050;42.660;23.276;2023-06-01T19:34:39;3.42;;;3.10;;
6043;SDS011;3050;42.660;23.276;2023-06-01T19:37:06;2.72;;;2.63;;
6043;SDS011;3050;42.660;23.276;2023-06-01T19:39:36;6.07;;;2.88;;
6043;SDS011;3050;42.660;23.276;2023-06-01T19:42:04;3.08;;;2.83;;
6043;SDS011;3050;42.660;23.276;2023-06-01T19:44:32;3.08;;;2.65;;
6043;SDS011;3050;42.660;23.276;2023-06-01T19:47:01;2.67;;;2.47;;
6043;SDS011;3050;42.660;23.276;2023-06-01T19:49:33;2.70;;;2.47;;
6043;SDS011;3050;42.660;23.276;2023-06-01T19:52:02;2.45;;;2.35;;
6043;SDS011;3050;42.660;23.276;2023-06-01T19:54:29;2.97;;;2.70;;
6043;SDS011;3050;42.660;23.276;2023-06-01T19:56:56;3.35;;;2.97;;
6043;SDS011;3050;42.660;23.276;2023-06-01T19:59:24;4.18;;;2.75;;
6043;SDS011;3050;42.660;23.276;2023-06-01T20:01:52;2.97;;;2.63;;
6043;SDS011;3050;42.660;23.276;2023-06-01T20:04:20;4.68;;;2.92;;
6043;SDS011;3050;42.660;23.276;2023-06-01T20:06:48;10.05;;;2.38;;
6043;SDS011;3050;42.660;23.276;2023-06-01T20:09:16;3.08;;;2.88;;
6043;SDS011;3050;42.660;23.276;2023-06-01T20:11:44;2.80;;;2.60;;
6043;SDS011;3050;42.660;23.276;2023-06-01T20:14:12;3.38;;;2.65;;
6043;SDS011;3050;42.660;23.276;2023-06-01T20:16:39;5.13;;;3.13;;
6043;SDS011;3050;42.660;23.276;2023-06-01T20:19:08;3.00;;;2.75;;
6043;SDS011;3050;42.660;23.276;2023-06-01T20:21:43;6.35;;;3.00;;
6043;SDS011;3050;42.660;23.276;2023-06-01T20:24:11;2.38;;;2.28;;
6043;SDS011;3050;42.660;23.276;2023-06-01T20:26:38;4.07;;;2.72;;
6043;SDS011;3050;42.660;23.276;2023-06-01T20:29:06;3.65;;;2.47;;
6043;SDS011;3050;42.660;23.276;2023-06-01T20:31:37;3.00;;;2.80;;
6043;SDS011;3050;42.660;23.276;2023-06-01T20:34:04;4.03;;;2.35;;
6043;SDS011;3050;42.660;23.276;2023-06-01T20:36:32;3.25;;;3.03;;
6043;SDS011;3050;42.660;23.276;2023-06-01T20:39:02;2.25;;;2.15;;
6043;SDS011;3050;42.660;23.276;2023-06-01T20:41:30;3.20;;;2.90;;
6043;SDS011;3050;42.660;23.276;2023-06-01T20:43:57;2.83;;;2.58;;
6043;SDS011;3050;42.660;23.276;2023-06-01T20:46:25;2.90;;;2.60;;
6043;SDS011;3050;42.660;23.276;2023-06-01T20:48:54;2.63;;;2.10;;
6043;SDS011;3050;42.660;23.276;2023-06-01T20:51:22;3.27;;;3.07;;
6043;SDS011;3050;42.660;23.276;2023-06-01T20:53:50;2.67;;;2.47;;
6043;SDS011;3050;42.660;23.276;2023-06-01T20:56:20;2.90;;;2.45;;
6043;SDS011;3050;42.660;23.276;2023-06-01T20:58:49;3.10;;;2.58;;
6043;SDS011;3050;42.660;23.276;2023-06-01T21:01:23;2.38;;;2.17;;
6043;SDS011;3050;42.660;23.276;2023-06-01T21:03:51;2.60;;;2.40;;
6043;SDS011;3050;42.660;23.276;2023-06-01T21:06:18;5.65;;;2.55;;
6043;SDS011;3050;42.660;23.276;2023-06-01T21:08:46;2.90;;;2.38;;
6043;SDS011;3050;42.660;23.276;2023-06-01T21:11:13;2.45;;;2.35;;
6043;SDS011;3050;42.660;23.276;2023-06-01T21:13:42;3.03;;;2.75;;
6043;SDS011;3050;42.660;23.276;2023-06-01T21:16:09;2.83;;;2.57;;
6043;SDS011;3050;42.660;23.276;2023-06-01T21:18:40;3.53;;;2.08;;
6043;SDS011;3050;42.660;23.276;2023-06-01T21:21:21;2.47;;;2.28;;
6043;SDS011;3050;42.660;23.276;2023-06-01T21:23:48;2.90;;;2.70;;
6043;SDS011;3050;42.660;23.276;2023-06-01T21:26:16;2.80;;;2.60;;
6043;SDS011;3050;42.660;23.276;2023-06-01T21:28:44;3.30;;;2.28;;
6043;SDS011;3050;42.660;23.276;2023-06-01T21:31:12;1.73;;;1.65;;
6043;SDS011;3050;42.660;23.276;2023-06-01T21:33:40;4.07;;;1.80;;
6043;SDS011;3050;42.660;23.276;2023-06-01T21:36:07;1.80;;;1.70;;
6043;SDS011;3050;42.660;23.276;2023-06-01T21:38:34;2.43;;;1.90;;
6043;SDS011;3050;42.660;23.276;2023-06-01T21:41:05;2.10;;;1.77;;
6043;SDS011;3050;42.660;23.276;2023-06-01T21:43:36;3.10;;;2.50;;
6043;SDS011;3050;42.660;23.276;2023-06-01T21:46:10;2.50;;;2.30;;
6043;SDS011;3050;42.660;23.276;2023-06-01T21:48:37;2.33;;;2.17;;
6043;SDS011;3050;42.660;23.276;2023-06-01T21:51:04;1.90;;;1.90;;
6043;SDS011;3050;42.660;23.276;2023-06-01T21:53:30;3.03;;;2.30;;
6043;SDS011;3050;42.660;23.276;2023-06-01T21:55:58;3.53;;;2.30;;
6043;SDS011;3050;42.660;23.276;2023-06-01T21:58:28;1.97;;;1.83;;
6043;SDS011;3050;42.660;23.276;2023-06-01T22:01:01;2.33;;;2.17;;
6043;SDS011;3050;42.660;23.276;2023-06-01T22:03:31;3.17;;;2.53;;
6043;SDS011;3050;42.660;23.276;2023-06-01T22:05:58;2.30;;;2.20;;
6043;SDS011;3050;42.660;23.276;2023-06-01T22:08:25;2.37;;;2.27;;
6043;SDS011;3050;42.660;23.276;2023-06-01T22:10:54;2.20;;;2.13;;
6043;SDS011;3050;42.660;23.276;2023-06-01T22:13:21;1.87;;;1.77;;
6043;SDS011;3050;42.660;23.276;2023-06-01T22:15:51;3.47;;;2.37;;
6043;SDS011;3050;42.660;23.276;2023-06-01T22:18:18;3.13;;;2.00;;
6043;SDS011;3050;42.660;23.276;2023-06-01T22:20:46;1.87;;;1.77;;
6043;SDS011;3050;42.660;23.276;2023-06-01T22:23:13;4.83;;;1.70;;
6043;SDS011;3050;42.660;23.276;2023-06-01T22:25:40;3.77;;;2.60;;
6043;SDS011;3050;42.660;23.276;2023-06-01T22:28:07;5.07;;;2.37;;
6043;SDS011;3050;42.660;23.276;2023-06-01T22:30:34;2.07;;;1.83;;
6043;SDS011;3050;42.660;23.276;2023-06-01T22:33:01;1.97;;;1.57;;
6043;SDS011;3050;42.660;23.276;2023-06-01T22:35:29;2.83;;;1.90;;
6043;SDS011;3050;42.660;23.276;2023-06-01T22:37:58;2.43;;;1.90;;
6043;SDS011;3050;42.660;23.276;2023-06-01T22:40:24;2.07;;;1.90;;
6043;SDS011;3050;42.660;23.276;2023-06-01T22:42:51;3.53;;;2.03;;
6043;SDS011;3050;42.660;23.276;2023-06-01T22:45:19;2.03;;;1.83;;
6043;SDS011;3050;42.660;23.276;2023-06-01T22:47:47;3.07;;;2.10;;
6043;SDS011;3050;42.660;23.276;2023-06-01T22:50:13;2.50;;;2.40;;
6043;SDS011;3050;42.660;23.276;2023-06-01T22:52:43;5.00;;;2.90;;
6043;SDS011;3050;42.660;23.276;2023-06-01T22:55:12;2.17;;;1.83;;
6043;SDS011;3050;42.660;23.276;2023-06-01T22:57:40;3.37;;;1.67;;
6043;SDS011;3050;42.660;23.276;2023-06-01T23:00:08;2.23;;;2.07;;
6043;SDS011;3050;42.660;23.276;2023-06-01T23:02:35;2.50;;;2.30;;
6043;SDS011;3050;42.660;23.276;2023-06-01T23:05:02;1.53;;;1.53;;
6043;SDS011;3050;42.660;23.276;2023-06-01T23:07:30;1.73;;;1.63;;
6043;SDS011;3050;42.660;23.276;2023-06-01T23:09:57;2.03;;;1.57;;
6043;SDS011;3050;42.660;23.276;2023-06-01T23:12:29;1.77;;;1.67;;
6043;SDS011;3050;42.660;23.276;2023-06-01T23:15:00;2.23;;;2.07;;
6043;SDS011;3050;42.660;23.276;2023-06-01T23:17:28;4.03;;;1.80;;
6043;SDS011;3050;42.660;23.276;2023-06-01T23:19:58;2.13;;;1.93;;
6043;SDS011;3050;42.660;23.276;2023-06-01T23:22:33;2.47;;;2.37;;
6043;SDS011;3050;42.660;23.276;2023-06-01T23:25:01;1.87;;;1.77;;
6043;SDS011;3050;42.660;23.276;2023-06-01T23:27:30;2.00;;;1.90;;
6043;SDS011;3050;42.660;23.276;2023-06-01T23:29:58;2.20;;;2.00;;
6043;SDS011;3050;42.660;23.276;2023-06-01T23:32:25;1.57;;;1.47;;
6043;SDS011;3050;42.660;23.276;2023-06-01T23:34:52;2.37;;;1.57;;
6043;SDS011;3050;42.660;23.276;2023-06-01T23:37:20;1.97;;;1.13;;
6043;SDS011;3050;42.660;23.276;2023-06-01T23:39:52;1.10;;;1.10;;
6043;SDS011;3050;42.660;23.276;2023-06-01T23:42:20;2.53;;;2.33;;
6043;SDS011;3050;42.660;23.276;2023-06-01T23:44:48;3.57;;;2.03;;
6043;SDS011;3050;42.660;23.276;2023-06-01T23:47:16;1.77;;;1.67;;
6043;SDS011;3050;42.660;23.276;2023-06-01T23:49:45;2.20;;;1.90;;
6043;SDS011;3050;42.660;23.276;2023-06-01T23:52:12;1.60;;;1.53;;
6043;SDS011;3050;42.660;23.276;2023-06-01T23:54:39;2.10;;;2.00;;
6043;SDS011;3050;42.660;23.276;2023-06-01T23:57:09;1.83;;;1.70;;
6043;SDS011;3050;42.660;23.276;2023-06-01T23:59:37;3.87;;;1.77;;
